DW8623 Weather Reports


Display with metric or nautical units.
time (UTC)temp
F
wind
direction
speed
MPH
gust
MPH
rain 1hr
in
rain 24hr
in
rain mn
in
humidity
%
barometer
mb
20260504185048 72 205 6.0 16.0 0.00 0.00 0.00 39 1011.4
20260504184553 71 244 9.0 18.0 0.00 0.00 0.00 39 1011.6
20260504184047 71 215 12.0 18.0 0.00 0.00 0.00 37 1011.5
20260504183547 71 191 10.0 18.0 0.00 0.00 0.00 37 1011.7
20260504183053 72 280 7.0 17.0 0.00 0.00 0.00 38 1011.7
20260504182547 71 209 6.0 14.0 0.00 0.00 0.00 38 1011.8
20260504182047 71 205 5.0 14.0 0.00 0.00 0.00 39 1011.8
20260504181553 71 221 4.0 16.0 0.00 0.00 0.00 36 1011.9
20260504181048 71 258 8.0 16.0 0.00 0.00 0.00 39 1012.0
20260504180549 71 180 7.0 16.0 0.00 0.00 0.00 38 1012.1
20260504180051 71 219 9.0 16.0 0.00 0.00 0.00 36 1012.2
20260504175548 71 186 7.0 14.0 0.00 0.00 0.00 43 1012.1
20260504175048 70 142 7.0 16.0 0.00 0.00 0.00 38 1012.2
20260504174556 70 178 10.0 16.0 0.00 0.00 0.00 39 1012.3
20260504174047 70 205 9.0 16.0 0.00 0.00 0.00 39 1012.3
20260504173547 70 187 6.0 12.0 0.00 0.00 0.00 37 1012.3
20260504173052 70 307 6.0 12.0 0.00 0.00 0.00 37 1012.3
20260504172548 70 249 7.0 14.0 0.00 0.00 0.00 37 1012.3
20260504172048 70 264 7.0 18.0 0.00 0.00 0.00 38 1012.4
20260504171552 69 179 9.0 18.0 0.00 0.00 0.00 37 1012.4
20260504171048 70 177 10.0 18.0 0.00 0.00 0.00 39 1012.5
20260504170547 69 217 7.0 13.0 0.00 0.00 0.00 39 1012.5
20260504151047 66 195 5.0 14.0 0.00 0.00 0.00 41 1014.0
20260504150550 65 227 5.0 14.0 0.00 0.00 0.00 42 1014.0
20260504141045 62 249 6.0 14.0 0.00 0.00 0.00 48 1014.1
20260504140547 61 182 8.0 14.0 0.00 0.00 0.00 45 1014.1
20260504130548 57 200 3.0 10.0 0.00 0.00 0.00 55 1014.3
20260504120119 51 232 2.0 10.0 0.00 0.00 0.00 67 1014.6
20260504110548 45 200 2.0 4.0 0.00 0.00 0.00 76 1014.5
20260504100545 44 0 0.0 2.0 0.00 0.00 0.00 72 1014.6
20260504081554 39 0 0.0 1.0 0.00 0.00 0.00 82 1015.1
20260504081050 39 0 0.0 2.0 0.00 0.00 0.00 82 1015.2
20260504080545 39 0 0.0 2.0 0.00 0.00 0.00 82 1015.2
20260504050547 39 0 0.0 0.0 0.00 0.00 0.00 81 1015.6
20260504045550 39 0 0.0 0.0 0.00 0.00 0.00 80 1015.6
20260504045047 40 0 0.0 1.0 0.00 0.00 0.00 81 1015.6
20260504044554 40 0 0.0 2.0 0.00 0.00 0.00 81 1015.6
20260504044047 40 0 0.0 2.0 0.00 0.00 0.00 80 1015.5
20260504043547 40 0 1.0 2.0 0.00 0.00 0.00 80 1015.4
20260504043110 40 267 0.0 2.0 0.00 0.00 0.00 80 1015.5
20260504042546 40 0 0.0 3.0 0.00 0.00 0.00 79 1015.5
20260504042048 40 0 1.0 3.0 0.00 0.00 0.00 79 1015.5
20260504041551 40 255 0.0 0.0 0.00 0.00 0.00 78 1015.4
20260504041045 41 0 0.0 0.0 0.00 0.00 0.00 78 1015.4
20260504040548 41 0 0.0 0.0 0.00 0.00 0.00 77 1015.4
20260504040054 41 0 0.0 0.0 0.00 0.00 0.00 77 1015.3
20260504035547 41 0 0.0 1.0 0.00 0.00 0.00 76 1015.2
20260504035047 41 0 0.0 2.0 0.00 0.00 0.00 76 1015.1
20260504034552 41 0 0.0 5.0 0.00 0.00 0.00 75 1015.1
20260504034049 41 1 1.0 5.0 0.00 0.00 0.00 75 1015.1
20260504033547 42 9 2.0 5.0 0.00 0.00 0.00 76 1015.0
20260504033102 42 0 0.0 0.0 0.00 0.00 0.00 75 1015.1
20260504032547 42 0 0.0 0.0 0.00 0.00 0.00 75 1015.2
20260504032047 42 0 0.0 0.0 0.00 0.00 0.00 75 1015.2
20260504031556 42 0 0.0 0.0 0.00 0.00 0.00 75 1015.2
20260504031050 42 0 0.0 0.0 0.00 0.00 0.00 74 1015.1
20260504030546 42 0 0.0 0.0 0.00 0.00 0.00 73 1015.0
20260504025547 43 0 0.0 0.0 0.00 0.00 0.00 71 1015.0
20260504025047 43 0 0.0 0.0 0.00 0.00 0.00 70 1015.0
20260504024550 44 0 0.0 1.0 0.00 0.00 0.00 69 1015.0
20260504024046 44 0 0.0 1.0 0.00 0.00 0.00 70 1015.1
20260504023546 44 0 0.0 1.0 0.00 0.00 0.00 68 1015.0
20260504023053 44 0 0.0 2.0 0.00 0.00 0.00 68 1014.9
20260504022547 45 0 0.0 2.0 0.00 0.00 0.00 67 1014.8
20260504022050 45 273 1.0 2.0 0.00 0.00 0.00 67 1014.9
20260504021552 45 273 1.0 3.0 0.00 0.00 0.00 65 1014.8
20260504021048 45 0 1.0 3.0 0.00 0.00 0.00 65 1014.9
20260504020547 46 0 0.0 0.0 0.00 0.00 0.00 64 1014.8
20260504020057 46 0 0.0 0.0 0.00 0.00 0.00 64 1014.8
20260504015549 46 0 0.0 0.0 0.00 0.00 0.00 64 1014.7
20260504015048 46 0 0.0 0.0 0.00 0.00 0.00 63 1014.7
20260504014554 47 0 0.0 2.0 0.00 0.00 0.00 64 1014.7
20260504014048 47 0 0.0 2.0 0.00 0.00 0.00 62 1014.7
20260504013549 48 195 1.0 4.0 0.00 0.00 0.00 61 1014.7
20260504013053 48 195 1.0 4.0 0.00 0.00 0.00 58 1014.7
20260504012548 48 195 3.0 4.0 0.00 0.00 0.00 59 1014.7
20260504012048 49 0 0.0 0.0 0.00 0.00 0.00 57 1014.6
20260504011556 49 0 0.0 0.0 0.00 0.00 0.00 56 1014.6
20260504011046 49 0 0.0 0.0 0.00 0.00 0.00 55 1014.4
20260504010546 50 0 0.0 0.0 0.00 0.00 0.00 54 1014.4
20260504010059 50 0 0.0 0.0 0.00 0.00 0.00 54 1014.4
20260504005547 51 0 0.0 0.0 0.00 0.00 0.00 52 1014.4
20260504005047 51 0 0.0 0.0 0.00 0.00 0.00 49 1014.4
20260504004548 52 0 0.0 0.0 0.00 0.00 0.00 48 1014.4
20260504004046 52 0 0.0 0.0 0.00 0.00 0.00 48 1014.3
20260504003545 52 0 0.0 0.0 0.00 0.00 0.00 48 1014.2
20260504003050 52 0 0.0 0.0 0.00 0.00 0.00 48 1014.1
20260504002546 52 0 0.0 0.0 0.00 0.00 0.00 49 1014.1
20260504002048 52 0 0.0 2.0 0.00 0.00 0.00 46 1014.1
20260504001556 53 0 0.0 2.0 0.00 0.00 0.00 45 1014.1
20260504001048 53 288 0.0 2.0 0.00 0.00 0.00 43 1014.1
20260504000547 53 288 0.0 2.0 0.00 0.00 0.00 43 1014.1
20260504000058 54 0 0.0 2.0 0.00 0.00 0.00 41 1014.0
20260503235546 54 0 0.0 5.0 0.00 0.00 0.00 41 1013.9
20260503235046 55 0 2.0 5.0 0.00 0.00 0.00 41 1014.0
20260503234556 55 285 0.0 6.0 0.00 0.00 0.00 40 1014.0
20260503234046 56 276 1.0 7.0 0.00 0.00 0.00 38 1014.0
20260503233546 57 289 2.0 7.0 0.00 0.00 0.00 37 1014.0
20260503233052 57 278 3.0 8.0 0.00 0.00 0.00 36 1014.0
20260503232548 58 256 1.0 10.0 0.00 0.00 0.00 36 1013.9
20260503232045 58 255 2.0 10.0 0.00 0.00 0.00 35 1013.8
20260503231552 58 249 5.0 10.0 0.00 0.00 0.00 35 1013.7
20260503231045 59 283 3.0 10.0 0.00 0.00 0.00 36 1013.6
20260503230545 59 0 2.0 10.0 0.00 0.00 0.00 34 1013.6
20260503230110 59 309 3.0 11.0 0.00 0.00 0.00 35 1013.6
20260503225546 59 318 5.0 12.0 0.00 0.00 0.00 34 1013.6
20260503225047 59 49 7.0 12.0 0.00 0.00 0.00 33 1013.7
20260503224552 60 251 5.0 12.0 0.00 0.00 0.00 34 1013.8
20260503224048 60 291 4.0 11.0 0.00 0.00 0.00 36 1013.7
20260503223547 60 286 4.0 11.0 0.00 0.00 0.00 34 1013.6
20260503223107 60 236 4.0 11.0 0.00 0.00 0.00 34 1013.7
20260503222546 60 319 4.0 9.0 0.00 0.00 0.00 33 1013.7
20260503222045 60 265 3.0 13.0 0.00 0.00 0.00 35 1013.7
20260503221556 60 312 6.0 14.0 0.00 0.00 0.00 35 1013.7
20260503221047 60 232 6.0 14.0 0.00 0.00 0.00 35 1013.7
20260503220546 60 273 6.0 14.0 0.00 0.00 0.00 32 1013.7
20260503220053 60 283 4.0 14.0 0.00 0.00 0.00 33 1013.8
20260503215546 60 257 5.0 15.0 0.00 0.00 0.00 33 1013.7
20260503215045 60 296 2.0 15.0 0.00 0.00 0.00 35 1013.8
20260503214558 60 286 3.0 18.0 0.00 0.00 0.00 35 1013.8
20260503214044 60 57 7.0 18.0 0.00 0.00 0.00 32 1013.8
20260503213548 60 249 9.0 18.0 0.00 0.00 0.00 33 1013.8
20260503213049 60 345 4.0 14.0 0.00 0.00 0.00 33 1013.7
20260503212545 60 297 4.0 14.0 0.00 0.00 0.00 34 1013.8
20260503212049 59 14 8.0 16.0 0.00 0.00 0.00 33 1013.7
20260503211551 60 319 7.0 16.0 0.00 0.00 0.00 33 1013.7
20260503211048 60 320 4.0 17.0 0.00 0.00 0.00 32 1013.8
20260503210548 60 241 9.0 22.0 0.00 0.00 0.00 32 1013.8
20260503210049 60 275 6.0 22.0 0.00 0.00 0.00 33 1013.8
20260503205546 61 280 8.0 18.0 0.00 0.00 0.00 31 1013.8
20260503205048 61 17 6.0 13.0 0.00 0.00 0.00 32 1013.8
20260503204550 61 34 2.0 15.0 0.00 0.00 0.00 32 1013.8
20260503204045 61 302 5.0 15.0 0.00 0.00 0.00 32 1013.7
20260503203547 60 357 7.0 15.0 0.00 0.00 0.00 32 1013.8
20260503203053 59 276 3.0 15.0 0.00 0.00 0.00 32 1013.9
20260503202550 60 297 6.0 15.0 0.00 0.00 0.00 31 1013.9
20260503202046 60 292 4.0 15.0 0.00 0.00 0.00 35 1013.9
20260503201552 60 5 4.0 15.0 0.00 0.00 0.00 32 1013.9
20260503201045 60 263 8.0 15.0 0.00 0.00 0.00 34 1014.1
20260503200544 60 195 5.0 15.0 0.00 0.00 0.00 33 1013.9
20260503200049 60 268 4.0 10.0 0.00 0.00 0.00 33 1014.1
20260503195548 60 0 4.0 16.0 0.00 0.00 0.00 31 1014.2
20260503195045 59 45 8.0 16.0 0.00 0.00 0.00 33 1014.3
20260503194606 58 281 8.0 15.0 0.00 0.00 0.00 31 1014.3
20260503194049 60 323 6.0 17.0 0.00 0.00 0.00 35 1014.6
20260503193544 59 305 9.0 22.0 0.00 0.00 0.00 34 1014.6
20260503193050 59 255 7.0 22.0 0.00 0.00 0.00 34 1014.7
20260503192548 59 240 10.0 21.0 0.00 0.00 0.00 32 1014.8
20260503192047 59 61 6.0 19.0 0.00 0.00 0.00 33 1014.7
20260503191557 59 315 12.0 19.0 0.00 0.00 0.00 34 1014.7
20260503191049 59 295 4.0 19.0 0.00 0.00 0.00 33 1014.8
20260503190546 59 267 7.0 19.0 0.00 0.00 0.00 35 1014.8
20260503190053 58 288 7.0 15.0 0.00 0.00 0.00 40 1014.8
20260503185545 57 253 4.0 15.0 0.00 0.00 0.00 37 1014.8